Chimney Rock, North Carolina
Current Conditions -  °F | °C
As of 11:54 AM on Thursday 23 Oct 2014 (Local Time) from KAVL Reporting Station
Clear Clear  
Wind Chill: 55°   Ceiling: Unl
Heat Index: 55°   Visibility: 10mi
Dew Point: 38°   Wind: 17mph
Humidity: 53%   Direction: 330°NNW
Pressure: 30.13"   Gusts: 26mph
Location:  35.44°N, 82.25°W
Report Text: KAVL 231554Z 33015G23KT 10SM CLR 13/03 A3013 RMK AO2 PK WND 34028/1507 SLP196 T01280033
Loading
Personal Weather Stations






























Interactive Weather Map New forecast layout! Learn more

10-Day Weather Forecast

Advertisements
Track Severe Weather on mobile